This is the latest recevied weather packets stored in our database for station/object N8HKU-5. If no packets are shown the sender has not sent any weather packets the latest 10 day(s).
| Time | Temp. | Humidity | Pressure | Rain* | Wind** | Luminosity | Snow |
|---|---|---|---|---|---|---|---|
| 1777950154 | 18.33° C | 69% | 998.6 hPa | 0 mm | - | - | - |
| 1777949554 | 18.33° C | 69% | 998.7 hPa | 0 mm | - | - | - |
| 1777948954 | 18.89° C | 68% | 998.8 hPa | 0 mm | - | - | - |
| 1777948354 | 18.33° C | 68% | 998.8 hPa | 0 mm | - | - | - |
| 1777947754 | 18.33° C | 69% | 998.7 hPa | 0 mm | - | - | - |
| 1777947155 | 18.33° C | 69% | 998.6 hPa | 0 mm | - | - | - |
| 1777946554 | 18.33° C | 69% | 998.5 hPa | 0 mm | - | - | - |
| 1777945954 | 17.78° C | 70% | 998.3 hPa | 0 mm | - | - | - |
| 1777945355 | 17.22° C | 73% | 998.4 hPa | 0 mm | - | - | - |
| 1777944754 | 17.22° C | 74% | 998.4 hPa | 0 mm | - | - | - |
| 1777944154 | 17.22° C | 76% | 998.4 hPa | 0 mm | - | - | - |
| 1777943554 | 16.67° C | 78% | 998.2 hPa | 0 mm | - | - | - |
| 1777942954 | 16.11° C | 82% | 998.2 hPa | 0 mm | - | - | - |
| 1777942354 | 15.56° C | 85% | 998.1 hPa | 0.25 mm | - | - | - |
| 1777941754 | 15.56° C | 85% | 997.9 hPa | 0.51 mm | - | - | - |
| 1777941154 | 15.56° C | 84% | 997.8 hPa | 0.51 mm | - | - | - |
| 1777940555 | 16.11° C | 84% | 998 hPa | 0.51 mm | - | - | - |
| 1777939954 | 16.11° C | 84% | 998 hPa | 0.76 mm | - | - | - |
| 1777939355 | 15.56° C | 84% | 998.4 hPa | 1.52 mm | - | - | - |
| 1777938755 | 15° C | 87% | 998.6 hPa | 1.78 mm | - | - | - |
| 1777938154 | 15° C | 88% | 998.2 hPa | 1.52 mm | - | - | - |
| 1777937554 | 15.56° C | 87% | 997.8 hPa | 1.52 mm | - | - | - |
| 1777936954 | 15.56° C | 85% | 997.9 hPa | 1.52 mm | - | - | - |
| 1777936354 | 16.67° C | 81% | 998.5 hPa | 1.27 mm | - | - | - |
| 1777935754 | 20° C | 67% | 998.6 hPa | 0.51 mm | - | - | - |
* Rain latest hour (hover to see other rain measurements)
** Current wind speed in m/s (hover to see current wind gust speed)